Time;durP1;ratioP1;P1;durP2;ratioP2;P2;SDS_P1;SDS_P2;PMS_P1;PMS_P2;Temp;Humidity;BMP_temperature;BMP_pressure;BME280_temperature;BME280_humidity;BME280_pressure;Samples;Min_cycle;Max_cycle;Signal;HPM_P1;HPM_P2
2023/10/24 00:01:23;;;;;;;6.27;5.67;;;;;;;11.60;100.00;99343.84;5039151;28;20218;-77
2023/10/24 00:03:49;;;;;;;6.30;5.70;;;;;;;11.62;100.00;99343.78;5058612;28;20684;-77
2023/10/24 00:06:15;;;;;;;6.27;5.77;;;;;;;11.63;100.00;99364.47;5041997;28;20194;-77
2023/10/24 00:08:41;;;;;;;5.93;5.47;;;;;;;11.64;100.00;99361.00;5041335;28;21084;-77
2023/10/24 00:11:06;;;;;;;6.10;5.60;;;;;;;11.65;100.00;99365.25;5042949;28;20191;-78
2023/10/24 00:13:32;;;;;;;7.13;6.57;;;;;;;11.65;100.00;99349.72;5044226;28;20592;-77
2023/10/24 00:15:58;;;;;;;7.50;6.90;;;;;;;11.64;100.00;99363.59;5043558;28;20184;-77
2023/10/24 00:18:25;;;;;;;8.10;7.40;;;;;;;11.63;100.00;99350.66;5039359;28;20206;-76
2023/10/24 00:20:50;;;;;;;7.17;6.47;;;;;;;11.62;100.00;99359.31;5040745;28;20187;-77
2023/10/24 00:23:16;;;;;;;8.77;7.97;;;;;;;11.61;100.00;99353.31;5044126;28;20194;-78
2023/10/24 00:25:41;;;;;;;8.30;7.60;;;;;;;11.62;100.00;99356.72;5044593;28;20204;-77
2023/10/24 00:28:06;;;;;;;7.87;7.17;;;;;;;11.62;100.00;99352.41;5041096;28;20221;-77
2023/10/24 00:30:31;;;;;;;7.90;7.23;;;;;;;11.62;100.00;99351.56;5039908;28;20204;-77
2023/10/24 00:32:57;;;;;;;8.03;7.40;;;;;;;11.63;100.00;99337.69;5043396;28;20211;-78
2023/10/24 00:35:22;;;;;;;8.33;7.20;;;;;;;11.64;100.00;99342.84;5038199;28;20195;-77
2023/10/24 00:37:47;;;;;;;8.43;7.67;;;;;;;11.64;100.00;99345.44;5042752;28;20201;-77
2023/10/24 00:40:13;;;;;;;7.53;6.83;;;;;;;11.66;100.00;99366.13;5044036;28;20191;-77
2023/10/24 00:42:38;;;;;;;7.90;7.20;;;;;;;11.65;100.00;99383.41;5040612;28;20267;-77
2023/10/24 00:45:04;;;;;;;7.27;6.67;;;;;;;11.67;100.00;99370.41;5043355;28;20985;-77
2023/10/24 00:47:30;;;;;;;7.90;7.30;;;;;;;11.68;100.00;99372.13;5040912;28;20601;-78
2023/10/24 00:49:55;;;;;;;7.27;6.77;;;;;;;11.68;100.00;99385.91;5041035;28;20191;-77
2023/10/24 00:52:21;;;;;;;8.43;7.73;;;;;;;11.71;100.00;99395.38;5041464;28;20661;-78
2023/10/24 00:54:47;;;;;;;8.80;8.00;;;;;;;11.71;100.00;99383.25;5041660;28;20207;-77
2023/10/24 00:57:13;;;;;;;9.53;8.83;;;;;;;11.72;100.00;99379.75;5058830;28;20212;-77
2023/10/24 00:59:39;;;;;;;9.00;8.20;;;;;;;11.73;100.00;99370.22;5041404;28;20233;-77
2023/10/24 01:02:06;;;;;;;8.70;8.00;;;;;;;11.74;100.00;99366.75;5040005;28;20274;-77
2023/10/24 01:04:33;;;;;;;9.50;8.80;;;;;;;11.74;100.00;99353.78;5059110;28;20794;-77
2023/10/24 01:06:59;;;;;;;10.23;9.43;;;;;;;11.73;100.00;99336.53;5055209;28;20267;-77
2023/10/24 01:09:25;;;;;;;9.67;8.87;;;;;;;11.72;100.00;99338.28;5043713;28;20565;-77
2023/10/24 01:11:51;;;;;;;10.93;10.03;;;;;;;11.70;100.00;99334.06;5042452;28;20678;-77
2023/10/24 01:14:16;;;;;;;11.13;10.23;;;;;;;11.67;100.00;99327.19;5039802;28;20180;-77
2023/10/24 01:16:43;;;;;;;11.60;10.60;;;;;;;11.66;100.00;99317.72;5042970;28;20241;-77
2023/10/24 01:19:09;;;;;;;10.73;9.83;;;;;;;11.65;100.00;99290.09;5040353;28;20195;-76
2023/10/24 01:21:34;;;;;;;9.90;9.10;;;;;;;11.64;100.00;99292.75;5042229;28;20186;-76
2023/10/24 01:23:59;;;;;;;10.73;9.83;;;;;;;11.64;100.00;99287.56;5042188;28;20191;-77
2023/10/24 01:26:27;;;;;;;9.63;8.90;;;;;;;11.63;100.00;99291.06;5043383;28;20197;-78
2023/10/24 01:28:52;;;;;;;9.33;8.50;;;;;;;11.64;100.00;99292.75;5041775;28;20207;-76
2023/10/24 01:31:17;;;;;;;9.50;8.70;;;;;;;11.63;100.00;99288.47;5041989;28;20202;-79
2023/10/24 01:33:43;;;;;;;9.50;8.70;;;;;;;11.64;100.00;99292.75;5041821;28;20263;-78
2023/10/24 01:36:08;;;;;;;9.47;8.77;;;;;;;11.63;100.00;99298.81;5039714;28;20319;-76
2023/10/24 01:38:33;;;;;;;9.50;8.80;;;;;;;11.62;100.00;99302.31;5041477;28;20694;-76
2023/10/24 01:40:59;;;;;;;9.87;9.07;;;;;;;11.61;100.00;99319.63;5041757;28;20194;-77
2023/10/24 01:43:24;;;;;;;10.37;9.53;;;;;;;11.61;100.00;99305.78;5042891;28;20183;-76
2023/10/24 01:45:49;;;;;;;10.60;9.80;;;;;;;11.59;100.00;99298.91;5041364;28;20183;-77
2023/10/24 01:48:14;;;;;;;10.93;9.93;;;;;;;11.57;100.00;99302.44;5039864;28;20662;-77
2023/10/24 01:50:40;;;;;;;11.33;10.43;;;;;;;11.56;100.00;99299.03;5056001;28;20193;-77
2023/10/24 01:53:05;;;;;;;12.30;11.20;;;;;;;11.54;100.00;99300.81;5039890;28;20333;-76
2023/10/24 01:55:31;;;;;;;12.23;11.23;;;;;;;11.52;100.00;99307.78;5042484;28;20190;-76
2023/10/24 01:57:56;;;;;;;11.90;10.90;;;;;;;11.52;100.00;99310.38;5041451;28;20206;-77
2023/10/24 02:00:21;;;;;;;11.47;10.67;;;;;;;11.53;100.00;99319.84;5041598;28;20246;-77
2023/10/24 02:02:47;;;;;;;11.03;10.13;;;;;;;11.54;100.00;99315.50;5043312;28;20186;-77
2023/10/24 02:05:12;;;;;;;12.63;11.43;;;;;;;11.54;100.00;99312.91;5037334;28;20200;-78
2023/10/24 02:07:38;;;;;;;11.70;10.80;;;;;;;11.53;100.00;99304.28;5038685;28;20245;-78
2023/10/24 02:10:04;;;;;;;12.87;11.77;;;;;;;11.54;100.00;99303.41;5045311;28;20187;-78
2023/10/24 02:12:30;;;;;;;12.27;11.17;;;;;;;11.53;100.00;99296.50;5042986;28;20206;-76
2023/10/24 02:14:55;;;;;;;13.37;12.10;;;;;;;11.52;100.00;99281.00;5038891;28;20190;-77
2023/10/24 02:17:21;;;;;;;13.20;12.10;;;;;;;11.51;100.00;99276.69;5040518;28;20206;-77
2023/10/24 02:19:46;;;;;;;13.43;12.33;;;;;;;11.48;100.00;99272.47;5043067;28;20217;-77
2023/10/24 02:22:11;;;;;;;11.83;10.93;;;;;;;11.48;100.00;99290.59;5031157;28;20193;-78
2023/10/24 02:24:37;;;;;;;12.10;11.00;;;;;;;11.50;100.00;99296.59;5037523;28;20183;-77
2023/10/24 02:27:02;;;;;;;10.30;9.40;;;;;;;11.52;100.00;99307.78;5041484;28;20218;-78
2023/10/24 02:29:30;;;;;;;11.30;10.40;;;;;;;11.54;100.00;99318.94;5037858;28;20309;-77
2023/10/24 02:31:56;;;;;;;10.17;9.47;;;;;;;11.56;100.00;99326.66;5039143;28;20206;-78
2023/10/24 02:34:21;;;;;;;10.87;10.10;;;;;;;11.57;100.00;99305.88;5037214;28;20839;-78
2023/10/24 02:36:46;;;;;;;13.33;12.13;;;;;;;11.57;100.00;99318.00;5044307;28;20193;-77
2023/10/24 02:39:12;;;;;;;12.33;11.33;;;;;;;11.55;100.00;99328.41;5041707;28;20554;-77
2023/10/24 02:41:37;;;;;;;11.77;10.87;;;;;;;11.56;100.00;99321.47;5041842;28;20202;-77
2023/10/24 02:44:02;;;;;;;10.70;9.73;;;;;;;11.57;100.00;99323.19;5042382;28;20191;-77
2023/10/24 02:46:28;;;;;;;10.67;9.87;;;;;;;11.58;100.00;99328.31;5041632;28;20179;-76
2023/10/24 02:48:53;;;;;;;10.30;9.50;;;;;;;11.58;100.00;99338.69;5044521;28;20237;-78
2023/10/24 02:51:20;;;;;;;10.57;9.77;;;;;;;11.59;100.00;99344.72;5041912;28;20281;-78
2023/10/24 02:53:46;;;;;;;10.60;9.80;;;;;;;11.62;100.00;99344.63;5040605;28;20261;-77
2023/10/24 02:56:11;;;;;;;12.23;11.13;;;;;;;11.62;100.00;99338.59;5040503;28;20175;-78
2023/10/24 02:58:36;;;;;;;10.67;9.70;;;;;;;11.62;100.00;99355.00;5043002;28;20646;-77
2023/10/24 03:01:06;;;;;;;11.00;10.10;;;;;;;11.62;100.00;99370.56;5053669;28;20245;-78
2023/10/24 03:03:32;;;;;;;9.90;9.10;;;;;;;11.65;100.00;99348.88;5048056;28;21022;-77
2023/10/24 03:05:57;;;;;;;11.57;10.53;;;;;;;11.65;100.00;99346.28;5043219;28;20205;-77
2023/10/24 03:08:23;;;;;;;10.73;9.97;;;;;;;11.66;100.00;99348.00;5038005;28;20204;-77
2023/10/24 03:10:48;;;;;;;10.37;9.57;;;;;;;11.67;100.00;99336.72;5037218;28;20627;-77
2023/10/24 03:13:13;;;;;;;10.77;9.97;;;;;;;11.68;100.00;99352.22;5037271;28;20675;-77
2023/10/24 03:15:40;;;;;;;11.03;10.23;;;;;;;11.69;100.00;99351.34;5040495;28;20184;-76
2023/10/24 03:18:06;;;;;;;11.47;10.47;;;;;;;11.70;100.00;99340.06;5039441;28;20423;-77
2023/10/24 03:20:32;;;;;;;10.83;9.93;;;;;;;11.69;100.00;99338.38;5042265;28;20700;-76
2023/10/24 03:22:57;;;;;;;10.20;9.30;;;;;;;11.70;100.00;99341.84;5041563;28;20187;-76
2023/10/24 03:25:24;;;;;;;10.77;9.90;;;;;;;11.68;100.00;99341.84;5043017;28;20255;-78
2023/10/24 03:27:53;;;;;;;10.47;9.57;;;;;;;11.68;100.00;99339.25;5045087;28;20246;-77
2023/10/24 03:30:20;;;;;;;10.43;9.53;;;;;;;11.68;100.00;99341.84;5042844;28;20206;-77
2023/10/24 03:32:45;;;;;;;10.77;9.97;;;;;;;11.67;100.00;99340.16;5046008;28;21082;-78
2023/10/24 03:35:10;;;;;;;9.97;9.17;;;;;;;11.67;100.00;99323.78;5045017;28;20214;-77
2023/10/24 03:37:36;;;;;;;10.43;9.53;;;;;;;11.68;100.00;99328.06;5045487;28;20202;-77
2023/10/24 03:40:02;;;;;;;11.40;10.50;;;;;;;11.66;100.00;99302.16;5046282;28;20218;-78
2023/10/24 03:42:30;;;;;;;11.57;10.57;;;;;;;11.68;100.00;99302.97;5038215;28;20257;-77
2023/10/24 03:44:55;;;;;;;12.00;10.93;;;;;;;11.70;100.00;99318.50;5045956;28;20241;-77
2023/10/24 03:47:20;;;;;;;10.87;10.07;;;;;;;11.69;100.00;99322.81;5045921;28;20199;-77
2023/10/24 03:49:46;;;;;;;11.27;10.37;;;;;;;11.70;100.00;99318.50;5039845;28;20192;-77
2023/10/24 03:52:11;;;;;;;11.03;10.23;;;;;;;11.70;100.00;99310.72;5043387;28;20195;-76
2023/10/24 03:54:36;;;;;;;10.30;9.50;;;;;;;11.69;100.00;99315.03;5046521;28;20585;-78
2023/10/24 03:57:02;;;;;;;10.87;10.07;;;;;;;11.70;100.00;99321.09;5045384;28;20323;-78
2023/10/24 03:59:27;;;;;;;11.77;10.77;;;;;;;11.68;100.00;99318.53;5045479;28;20184;-77
2023/10/24 04:01:53;;;;;;;11.30;10.40;;;;;;;11.68;100.00;99318.53;5062402;28;20205;-78
2023/10/24 04:04:18;;;;;;;10.87;10.07;;;;;;;11.67;100.00;99308.22;5045335;28;20503;-77
2023/10/24 04:06:43;;;;;;;11.57;10.67;;;;;;;11.65;100.00;99299.63;5046319;28;20199;-78
2023/10/24 04:09:09;;;;;;;12.03;11.13;;;;;;;11.63;100.00;99296.25;5047441;28;20223;-77
2023/10/24 04:11:34;;;;;;;14.53;12.97;;;;;;;11.59;100.00;99287.72;5046584;28;20238;-78
2023/10/24 04:14:00;;;;;;;13.60;12.40;;;;;;;11.53;100.00;99273.19;5048967;28;20193;-77
2023/10/24 04:16:26;;;;;;;13.53;12.43;;;;;;;11.50;100.00;99277.59;5044617;28;20242;-77
2023/10/24 04:18:51;;;;;;;13.43;12.13;;;;;;;11.46;100.00;99270.81;5043379;28;20202;-78
2023/10/24 04:21:17;;;;;;;13.53;12.37;;;;;;;11.44;100.00;99266.53;5047682;28;20191;-77
2023/10/24 04:23:43;;;;;;;13.23;12.23;;;;;;;11.43;100.00;99277.78;5041209;28;20656;-77
2023/10/24 04:26:09;;;;;;;12.80;11.70;;;;;;;11.41;100.00;99266.63;5046281;28;20198;-78
2023/10/24 04:28:34;;;;;;;13.83;12.63;;;;;;;11.42;100.00;99264.88;5046340;28;20215;-78
2023/10/24 04:31:00;;;;;;;12.33;11.33;;;;;;;11.42;100.00;99263.13;5045115;28;20194;-77
2023/10/24 04:33:26;;;;;;;13.10;12.03;;;;;;;11.44;100.00;99258.75;5046386;28;20988;-78
2023/10/24 04:35:51;;;;;;;12.87;11.70;;;;;;;11.46;100.00;99255.28;5040275;28;20229;-77
2023/10/24 04:38:17;;;;;;;11.57;10.57;;;;;;;11.47;100.00;99257.81;5044326;28;20648;-76
2023/10/24 04:40:46;;;;;;;11.70;10.67;;;;;;;11.49;100.00;99252.59;5044189;28;20191;-77
2023/10/24 04:43:12;;;;;;;12.00;11.00;;;;;;;11.50;100.00;99244.78;5042994;28;20195;-78
2023/10/24 04:45:38;;;;;;;12.47;11.37;;;;;;;11.52;100.00;99240.41;5044993;28;20187;-77
2023/10/24 04:48:04;;;;;;;12.13;11.13;;;;;;;11.53;100.00;99243.81;5044945;28;20270;-78
2023/10/24 04:50:30;;;;;;;10.70;9.90;;;;;;;11.53;100.00;99236.06;5047263;28;21021;-77
2023/10/24 04:52:56;;;;;;;11.67;10.77;;;;;;;11.54;100.00;99241.22;5045317;28;20195;-78
2023/10/24 04:55:22;;;;;;;11.37;10.47;;;;;;;11.53;100.00;99236.91;5057699;28;20199;-78
2023/10/24 04:57:48;;;;;;;11.40;10.50;;;;;;;11.54;100.00;99233.44;5068178;28;20206;-77
2023/10/24 05:00:13;;;;;;;11.23;10.43;;;;;;;11.55;100.00;99223.91;5046526;28;20537;-78
2023/10/24 05:02:40;;;;;;;12.77;11.67;;;;;;;11.55;100.00;99213.53;5042157;28;20197;-77
2023/10/24 05:05:06;;;;;;;12.37;11.27;;;;;;;11.55;100.00;99213.53;5046698;28;20190;-77
2023/10/24 05:07:31;;;;;;;11.57;10.67;;;;;;;11.55;100.00;99201.44;5046624;28;20768;-76
2023/10/24 05:09:57;;;;;;;10.47;9.67;;;;;;;11.55;100.00;99195.41;5046355;28;20183;-78
2023/10/24 05:12:22;;;;;;;11.47;10.33;;;;;;;11.55;100.00;99204.03;5042716;28;20248;-77
2023/10/24 05:14:48;;;;;;;12.87;11.73;;;;;;;11.54;100.00;99204.06;5041952;28;20206;-77
2023/10/24 05:17:14;;;;;;;14.03;13.03;;;;;;;11.51;100.00;99204.16;5045720;28;20225;-77
2023/10/24 05:19:41;;;;;;;15.20;13.80;;;;;;;11.53;100.00;99221.38;5046229;28;20186;-76
2023/10/24 05:22:07;;;;;;;15.03;13.73;;;;;;;11.47;100.00;99220.72;5036660;28;20187;-77
2023/10/24 05:24:32;;;;;;;14.27;13.07;;;;;;;11.39;100.00;99229.53;5043108;28;20193;-77
2023/10/24 05:26:57;;;;;;;15.10;13.47;;;;;;;11.35;100.00;99230.53;5037496;28;20183;-77
2023/10/24 05:29:23;;;;;;;13.13;12.03;;;;;;;11.33;100.00;99223.69;5055190;28;20206;-77
2023/10/24 05:31:48;;;;;;;14.07;12.97;;;;;;;11.35;100.00;99227.09;5037844;28;20207;-78
2023/10/24 05:34:13;;;;;;;13.73;12.63;;;;;;;11.32;100.00;99230.63;5045458;28;21052;-78
2023/10/24 05:36:39;;;;;;;12.73;11.83;;;;;;;11.32;100.00;99233.22;5037044;28;20187;-78
2023/10/24 05:39:04;;;;;;;13.27;12.17;;;;;;;11.33;100.00;99249.59;5041825;28;20228;-77
2023/10/24 05:41:29;;;;;;;13.20;12.13;;;;;;;11.33;100.00;99247.88;5044139;28;20222;-78
2023/10/24 05:43:55;;;;;;;13.60;12.40;;;;;;;11.33;100.00;99239.25;5040670;28;20283;-77
2023/10/24 05:46:20;;;;;;;13.13;12.03;;;;;;;11.33;100.00;99237.50;5042060;28;20653;-78
2023/10/24 05:48:46;;;;;;;11.80;10.90;;;;;;;11.34;100.00;99248.72;5036531;28;20202;-77
2023/10/24 05:51:21;;;;;;;12.70;11.60;;;;;;;11.36;100.00;99245.16;5037324;28;20267;-78
2023/10/24 05:53:47;;;;;;;12.70;11.63;;;;;;;11.36;100.00;99232.22;5041788;28;20257;-77
2023/10/24 05:56:12;;;;;;;12.30;11.20;;;;;;;11.38;100.00;99221.84;5040869;28;20294;-77
2023/10/24 05:58:37;;;;;;;12.23;11.27;;;;;;;11.39;100.00;99226.94;5042290;28;20295;-77
2023/10/24 06:01:03;;;;;;;11.47;10.63;;;;;;;11.39;100.00;99219.19;5043585;28;20191;-78
2023/10/24 06:03:28;;;;;;;11.90;10.90;;;;;;;11.41;100.00;99221.75;5044288;28;20200;-77
2023/10/24 06:05:53;;;;;;;11.43;10.50;;;;;;;11.42;100.00;99224.28;5041099;28;20197;-77
2023/10/24 06:08:19;;;;;;;10.23;9.43;;;;;;;11.43;100.00;99230.28;5059694;28;20221;-76
2023/10/24 06:10:56;;;;;;;10.83;10.03;;;;;;;11.42;100.00;99231.19;5044845;28;20616;-78
2023/10/24 06:13:21;;;;;;;11.50;10.63;;;;;;;11.42;100.00;99239.81;5043967;28;20243;-77
2023/10/24 06:15:47;;;;;;;11.20;10.20;;;;;;;11.43;100.00;99244.13;5044729;28;20194;-78
2023/10/24 06:18:12;;;;;;;10.90;10.10;;;;;;;11.46;100.00;99261.31;5043686;28;20576;-78
2023/10/24 06:20:38;;;;;;;11.10;10.20;;;;;;;11.48;100.00;99262.09;5042738;28;20917;-77
2023/10/24 06:23:05;;;;;;;11.13;10.23;;;;;;;11.50;100.00;99265.50;5043943;28;20680;-77
2023/10/24 06:25:36;;;;;;;11.30;10.50;;;;;;;11.53;100.00;99280.97;5045729;28;20244;-77
2023/10/24 06:28:01;;;;;;;11.17;10.20;;;;;;;11.56;100.00;99285.19;5041048;28;20233;-77
2023/10/24 06:30:27;;;;;;;12.00;11.00;;;;;;;11.58;100.00;99297.22;5042046;28;20179;-78
2023/10/24 06:32:52;;;;;;;11.77;10.87;;;;;;;11.61;100.00;99280.75;5040658;28;20187;-76
2023/10/24 06:35:17;;;;;;;12.03;11.00;;;;;;;11.65;100.00;99284.09;5042443;28;20273;-77
2023/10/24 06:37:43;;;;;;;12.03;11.00;;;;;;;11.66;100.00;99265.88;5037123;28;20210;-78
2023/10/24 06:40:10;;;;;;;12.07;11.03;;;;;;;11.68;100.00;99255.50;5045181;28;20210;-77
2023/10/24 06:42:35;;;;;;;11.03;10.23;;;;;;;11.69;100.00;99239.06;5042315;28;20176;-77
2023/10/24 06:45:00;;;;;;;11.10;10.20;;;;;;;11.71;100.00;99245.03;5040333;28;20218;-78
2023/10/24 06:47:25;;;;;;;13.27;12.17;;;;;;;11.71;100.00;99232.91;5045340;28;20225;-76
2023/10/24 06:49:51;;;;;;;13.30;12.30;;;;;;;11.69;100.00;99232.09;5040398;28;20215;-77
2023/10/24 06:52:16;;;;;;;13.27;12.17;;;;;;;11.70;100.00;99235.56;5054073;28;20215;-77
2023/10/24 06:54:41;;;;;;;12.77;11.60;;;;;;;11.70;100.00;99241.59;5064670;28;20193;-77
2023/10/24 06:57:07;;;;;;;11.90;10.97;;;;;;;11.71;100.00;99235.50;5045435;28;20206;-77
2023/10/24 06:59:32;;;;;;;13.23;12.10;;;;;;;11.73;100.00;99245.81;5041251;28;20654;-77
2023/10/24 07:01:57;;;;;;;12.13;11.00;;;;;;;11.74;100.00;99234.56;5038992;28;20269;-77
2023/10/24 07:04:22;;;;;;;11.37;10.47;;;;;;;11.74;100.00;99243.19;5040592;28;20198;-77
2023/10/24 07:06:48;;;;;;;11.83;10.83;;;;;;;11.73;100.00;99238.91;5039998;28;20602;-77
2023/10/24 07:09:13;;;;;;;13.03;11.83;;;;;;;11.72;100.00;99239.81;5040551;28;20777;-77
2023/10/24 07:11:42;;;;;;;11.77;10.77;;;;;;;11.74;100.00;99243.19;5040215;28;20197;-76
2023/10/24 07:14:07;;;;;;;12.77;11.57;;;;;;;11.74;100.00;99248.38;5039646;28;20233;-76
2023/10/24 07:16:33;;;;;;;10.67;9.87;;;;;;;11.76;100.00;99255.25;5042808;28;20190;-77
2023/10/24 07:18:58;;;;;;;10.77;9.87;;;;;;;11.78;100.00;99256.06;5039561;28;20202;-77
2023/10/24 07:21:23;;;;;;;11.40;10.40;;;;;;;11.81;100.00;99258.53;5041863;28;20191;-76
2023/10/24 07:23:50;;;;;;;11.63;10.63;;;;;;;11.82;100.00;99253.31;5042151;28;20196;-77
2023/10/24 07:26:15;;;;;;;11.73;10.67;;;;;;;11.83;100.00;99256.75;5042062;28;20217;-78
2023/10/24 07:28:41;;;;;;;10.63;9.93;;;;;;;11.85;100.00;99266.19;5045449;28;20230;-77
2023/10/24 07:31:06;;;;;;;10.57;9.80;;;;;;;11.89;100.00;99266.94;5039837;28;20213;-77
2023/10/24 07:33:31;;;;;;;10.50;9.60;;;;;;;11.92;100.00;99261.69;5042782;28;20197;-77
2023/10/24 07:36:06;;;;;;;10.00;9.20;;;;;;;11.95;100.00;99265.91;5042076;28;20667;-77
2023/10/24 07:38:32;;;;;;;9.97;9.17;;;;;;;11.97;100.00;99269.31;5042644;28;20645;-77
2023/10/24 07:40:57;;;;;;;11.03;10.23;;;;;;;11.98;100.00;99271.88;5040845;28;20188;-77
2023/10/24 07:43:23;;;;;;;9.77;8.97;;;;;;;12.00;100.00;99284.81;5042629;28;20244;-77
2023/10/24 07:45:50;;;;;;;10.00;9.27;;;;;;;12.01;100.00;99300.31;5041041;28;20285;-77
2023/10/24 07:48:15;;;;;;;9.67;9.07;;;;;;;12.03;100.00;99303.69;5042710;28;20217;-76
2023/10/24 07:50:54;;;;;;;9.50;8.67;;;;;;;12.05;100.00;99288.09;5056527;28;20209;-76
2023/10/24 07:53:21;;;;;;;9.47;8.67;;;;;;;12.08;100.00;99282.81;5039489;28;20195;-76
2023/10/24 07:55:47;;;;;;;9.97;9.07;;;;;;;12.10;100.00;99280.19;5042356;28;20250;-76
2023/10/24 07:58:12;;;;;;;10.67;9.87;;;;;;;12.13;100.00;99274.88;5039318;28;20849;-75
2023/10/24 08:00:37;;;;;;;10.10;9.30;;;;;;;12.14;100.00;99277.44;5042113;28;20195;-76
2023/10/24 08:03:03;;;;;;;9.50;8.70;;;;;;;12.18;100.00;99270.41;5040464;28;20594;-77
2023/10/24 08:05:28;;;;;;;9.70;9.00;;;;;;;12.19;100.00;99257.38;5041413;28;20739;-77
2023/10/24 08:07:53;;;;;;;9.20;8.50;;;;;;;12.22;100.00;99265.97;5042490;28;20691;-77
2023/10/24 08:10:18;;;;;;;9.53;8.73;;;;;;;12.22;100.00;99271.16;5038830;28;20187;-76
2023/10/24 08:12:44;;;;;;;9.20;8.50;;;;;;;12.24;100.00;99283.19;5044713;28;20233;-76
2023/10/24 08:15:09;;;;;;;9.33;8.63;;;;;;;12.26;100.00;99283.97;5045701;28;20669;-76
2023/10/24 08:17:35;;;;;;;9.70;8.90;;;;;;;12.27;100.00;99283.06;5045396;28;20211;-76
2023/10/24 08:20:00;;;;;;;8.83;8.13;;;;;;;12.28;100.00;99287.34;5045622;28;20191;-77
2023/10/24 08:22:26;;;;;;;9.00;8.10;;;;;;;12.32;100.00;99298.50;5045327;28;20612;-78
2023/10/24 08:24:51;;;;;;;8.70;8.00;;;;;;;12.33;100.00;99295.00;5046210;28;20193;-79
2023/10/24 08:27:16;;;;;;;9.03;8.23;;;;;;;12.35;100.00;99306.16;5043762;28;20298;-76
2023/10/24 08:29:42;;;;;;;8.53;7.93;;;;;;;12.35;100.00;99312.22;5045208;28;20211;-77
2023/10/24 08:32:07;;;;;;;8.13;7.53;;;;;;;12.37;100.00;99306.13;5044552;28;20199;-77
2023/10/24 08:34:36;;;;;;;7.53;6.93;;;;;;;12.37;100.00;99303.53;5046636;28;20270;-77
2023/10/24 08:37:02;;;;;;;7.83;7.23;;;;;;;12.38;100.00;99297.47;5044789;28;20202;-77
2023/10/24 08:39:28;;;;;;;7.83;7.23;;;;;;;12.39;100.00;99291.38;5046863;28;20840;-80
2023/10/24 08:41:59;;;;;;;7.33;6.73;;;;;;;12.37;100.00;99278.44;5040106;28;20196;-76
2023/10/24 08:44:26;;;;;;;7.03;6.47;;;;;;;12.38;100.00;99274.94;5046485;28;20210;-77
2023/10/24 08:46:52;;;;;;;7.03;6.43;;;;;;;12.40;100.00;99280.94;5046892;28;20278;-77
2023/10/24 08:49:18;;;;;;;8.07;7.47;;;;;;;12.41;100.00;99282.63;5046939;28;20301;-78
2023/10/24 08:51:45;;;;;;;7.10;6.60;;;;;;;12.43;100.00;99282.56;5058452;28;20206;-77
2023/10/24 08:54:10;;;;;;;6.33;5.83;;;;;;;12.43;100.00;99280.84;5060583;28;20191;-76
2023/10/24 08:56:37;;;;;;;7.20;6.50;;;;;;;12.44;100.00;99277.34;5046730;28;20265;-77
2023/10/24 08:59:07;;;;;;;6.27;5.87;;;;;;;12.46;100.00;99267.78;5045818;28;20208;-77
2023/10/24 09:01:34;;;;;;;6.70;6.20;;;;;;;12.48;100.00;99273.72;5045174;28;20193;-76
2023/10/24 09:04:03;;;;;;;5.83;5.43;;;;;;;12.52;100.00;99271.91;5042213;28;20194;-76
2023/10/24 09:06:31;;;;;;;6.33;5.80;;;;;;;12.56;100.00;99270.03;5045876;28;20666;-76
2023/10/24 09:08:56;;;;;;;6.00;5.60;;;;;;;12.57;100.00;99271.75;5043563;28;20295;-77
2023/10/24 09:11:23;;;;;;;5.47;5.07;;;;;;;12.57;100.00;99269.97;5068437;28;20231;-76
2023/10/24 09:13:48;;;;;;;5.50;5.10;;;;;;;12.57;100.00;99269.97;5046630;28;20195;-77
2023/10/24 09:16:15;;;;;;;5.30;4.90;;;;;;;12.59;100.00;99259.56;5045413;28;20198;-77
2023/10/24 09:18:40;;;;;;;4.97;4.67;;;;;;;12.62;100.00;99260.31;5042938;28;20212;-77
2023/10/24 09:21:07;;;;;;;4.97;4.67;;;;;;;12.66;100.00;99261.03;5040982;28;20188;-77
2023/10/24 09:23:35;;;;;;;4.57;4.27;;;;;;;12.70;100.00;99256.63;5046313;28;20736;-76
2023/10/24 09:26:05;;;;;;;4.77;4.47;;;;;;;12.75;100.00;99258.16;5045210;28;20222;-77
2023/10/24 09:28:33;;;;;;;4.80;4.50;;;;;;;12.76;100.00;99246.00;5040666;28;20218;-77
2023/10/24 09:30:59;;;;;;;5.10;4.70;;;;;;;12.78;100.00;99249.41;5041470;28;20292;-77
2023/10/24 09:33:26;;;;;;;4.57;4.17;;;;;;;12.79;100.00;99253.69;5042244;28;20290;-76
2023/10/24 09:35:52;;;;;;;4.97;4.57;;;;;;;12.81;100.00;99252.72;5041513;28;20203;-77
2023/10/24 09:38:20;;;;;;;4.60;4.30;;;;;;;12.83;100.00;99257.88;5043222;28;20210;-77
2023/10/24 09:40:46;;;;;;;5.00;4.20;;;;;;;12.83;100.00;99242.31;5042940;28;20199;-76
2023/10/24 09:43:18;;;;;;;5.70;4.20;;;;;;;12.85;100.00;99243.09;5040626;28;20190;-77
2023/10/24 09:45:44;;;;;;;4.50;4.10;;;;;;;12.90;100.00;99237.75;5046100;28;20188;-77
2023/10/24 09:48:11;;;;;;;4.30;4.00;;;;;;;12.94;100.00;99249.69;5043855;28;20214;-77
2023/10/24 09:50:39;;;;;;;6.03;4.70;;;;;;;12.99;100.00;99250.38;5042061;28;20186;-77
2023/10/24 09:53:05;;;;;;;5.93;5.07;;;;;;;13.00;100.00;99248.66;5041662;28;20306;-77
2023/10/24 09:55:30;;;;;;;5.43;5.03;;;;;;;12.98;100.00;99240.06;5044776;28;20622;-76
2023/10/24 09:57:59;;;;;;;4.90;4.50;;;;;;;13.02;100.00;99231.25;5042025;28;20582;-77
2023/10/24 10:00:26;;;;;;;4.93;4.53;;;;;;;13.03;100.00;99236.41;5044804;28;20681;-76
2023/10/24 10:02:52;;;;;;;5.27;4.77;;;;;;;13.05;100.00;99233.72;5042846;28;20253;-77
2023/10/24 10:05:18;;;;;;;5.27;4.77;;;;;;;13.07;100.00;99221.53;5041783;28;20191;-78
2023/10/24 10:07:49;;;;;;;5.83;5.40;;;;;;;13.09;100.00;99222.34;5043457;28;20216;-76
2023/10/24 10:10:16;;;;;;;17.03;15.37;;;;;;;13.10;100.00;99219.66;5042503;28;20198;-76
2023/10/24 10:12:41;;;;;;;16.40;14.20;;;;;;;13.14;100.00;99224.75;5042473;28;20219;-77
2023/10/24 10:15:26;;;;;;;15.20;13.90;;;;;;;13.17;100.00;99225.50;5040993;28;20234;-76
2023/10/24 10:18:10;;;;;;;12.93;11.77;;;;;;;13.19;100.00;99223.69;5043544;28;20228;-77
2023/10/24 10:20:57;;;;;;;9.07;8.17;;;;;;;13.24;100.00;99218.31;5044226;28;20185;-76
2023/10/24 10:23:25;;;;;;;7.53;6.80;;;;;;;13.26;100.00;99206.97;5038004;28;20191;-76
2023/10/24 10:26:19;;;;;;;6.77;6.17;;;;;;;13.29;100.00;99213.81;5042468;28;20189;-76
2023/10/24 10:29:03;;;;;;;7.27;6.67;;;;;;;13.30;100.00;99204.28;5043818;28;20206;-76
2023/10/24 10:32:14;;;;;;;6.50;5.93;;;;;;;13.34;100.00;99221.41;5036016;28;20255;-76
2023/10/24 10:34:39;;;;;;;6.60;6.10;;;;;;;13.38;100.00;99213.47;5035285;28;20366;-77
2023/10/24 10:37:05;;;;;;;10.77;9.97;;;;;;;13.41;100.00;99209.94;5041265;28;20765;-76
2023/10/24 10:39:30;;;;;;;7.63;7.13;;;;;;;13.43;100.00;99204.66;5035838;28;20192;-76
2023/10/24 10:41:56;;;;;;;7.57;7.10;;;;;;;13.44;100.00;99207.22;5034362;28;20208;-78
2023/10/24 10:44:41;;;;;;;8.73;8.03;;;;;;;13.41;100.00;99202.97;5042204;28;20352;-76
2023/10/24 10:47:08;;;;;;;6.77;6.27;;;;;;;13.41;100.00;99202.97;5032932;28;20271;-77
2023/10/24 10:49:56;;;;;;;6.13;5.63;;;;;;;13.43;100.00;99192.53;5049834;28;20204;-77
2023/10/24 10:52:46;;;;;;;5.60;5.20;;;;;;;13.46;100.00;99189.78;5061222;28;20201;-77
2023/10/24 10:55:23;;;;;;;6.43;5.93;;;;;;;13.43;100.00;99186.47;5036863;28;20223;-77
2023/10/24 10:58:23;;;;;;;5.90;5.33;;;;;;;13.40;100.00;99200.44;5043010;28;20326;-77
2023/10/24 11:01:01;;;;;;;6.23;5.63;;;;;;;13.40;100.00;99183.09;5035701;28;20332;-76
2023/10/24 11:03:42;;;;;;;5.57;5.00;;;;;;;13.45;100.00;99187.25;5038719;28;20184;-76
2023/10/24 11:06:17;;;;;;;6.00;5.50;;;;;;;13.43;100.00;99187.34;5040152;28;20197;-77
2023/10/24 11:08:50;;;;;;;6.13;5.53;;;;;;;13.41;100.00;99184.78;5042913;28;20224;-77
2023/10/24 11:11:20;;;;;;;5.60;5.20;;;;;;;13.43;100.00;99182.13;5029335;28;20567;-76
2023/10/24 11:13:51;;;;;;;5.77;5.37;;;;;;;13.44;100.00;99180.38;5033031;28;20205;-77
2023/10/24 11:16:17;;;;;;;6.57;5.90;;;;;;;13.42;100.00;99177.84;5034852;28;20214;-76